createdAt,value
2023-03-20T00:00:16.533Z,5.95
2023-03-20T00:02:43.762Z,5.55
2023-03-20T00:05:21.928Z,6.55
2023-03-20T00:07:53.221Z,5.53
2023-03-20T00:10:21.339Z,6.45
2023-03-20T00:12:52.903Z,5.35
2023-03-20T00:15:25.353Z,4.70
2023-03-20T00:17:55.764Z,5.65
2023-03-20T00:20:23.131Z,5.43
2023-03-20T00:22:56.030Z,5.80
2023-03-20T00:25:27.170Z,6.20
2023-03-20T00:27:56.933Z,6.22
2023-03-20T00:30:29.195Z,5.20
2023-03-20T00:32:58.796Z,6.88
2023-03-20T00:35:27.950Z,6.13
2023-03-20T00:37:58.763Z,6.03
2023-03-20T00:40:36.828Z,5.75
2023-03-20T00:43:10.501Z,5.80
2023-03-20T00:45:42.922Z,6.28
2023-03-20T00:48:15.887Z,5.60
2023-03-20T00:50:47.625Z,6.95
2023-03-20T00:53:14.884Z,6.03
2023-03-20T00:55:42.204Z,6.50
2023-03-20T00:58:10.570Z,6.25
2023-03-20T01:00:46.827Z,6.45
2023-03-20T01:03:20.657Z,6.65
2023-03-20T01:05:50.101Z,6.30
2023-03-20T01:08:24.245Z,6.03
2023-03-20T01:10:55.048Z,6.13
2023-03-20T01:13:30.999Z,5.80
2023-03-20T01:16:02.402Z,5.25
2023-03-20T01:18:32.159Z,6.72
2023-03-20T01:21:01.891Z,5.75
2023-03-20T01:23:29.843Z,5.28
2023-03-20T01:25:57.364Z,5.30
2023-03-20T01:28:27.896Z,5.68
2023-03-20T01:30:55.283Z,5.95
2023-03-20T01:33:26.485Z,6.90
2023-03-20T01:35:59.470Z,6.65
2023-03-20T01:38:27.778Z,6.63
2023-03-20T01:41:16.935Z,5.82
2023-03-20T01:43:47.978Z,6.65
2023-03-20T01:46:18.765Z,5.60
2023-03-20T01:48:51.344Z,6.57
2023-03-20T01:51:24.369Z,6.63
2023-03-20T01:54:01.795Z,5.32
2023-03-20T01:56:35.223Z,6.70
2023-03-20T01:59:23.264Z,6.00
2023-03-20T02:01:55.840Z,5.88
2023-03-20T02:06:59.935Z,6.13
2023-03-20T02:09:57.560Z,6.60
2023-03-20T02:12:36.652Z,6.07
2023-03-20T02:15:06.720Z,5.95
2023-03-20T02:17:52.728Z,7.22
2023-03-20T02:20:29.656Z,6.05
2023-03-20T02:22:59.742Z,6.45
2023-03-20T02:26:03.048Z,5.97
2023-03-20T02:29:12.223Z,5.93
2023-03-20T02:32:05.229Z,5.70
2023-03-20T02:35:09.551Z,6.35
2023-03-20T02:38:04.705Z,6.75
2023-03-20T02:40:50.976Z,6.32
2023-03-20T02:43:43.373Z,5.53
2023-03-20T02:46:29.416Z,5.68
2023-03-20T02:49:04.897Z,6.47
2023-03-20T02:51:49.139Z,5.82
2023-03-20T02:54:40.532Z,6.25
2023-03-20T02:57:17.830Z,6.43
2023-03-20T02:59:58.127Z,7.05
2023-03-20T03:02:43.272Z,7.18
2023-03-20T03:05:19.552Z,6.57
2023-03-20T03:07:53.439Z,7.10
2023-03-20T03:10:28.955Z,6.10
2023-03-20T03:13:00.719Z,6.50
2023-03-20T03:15:41.326Z,6.80
2023-03-20T03:18:16.520Z,6.57
2023-03-20T03:20:50.827Z,6.35
2023-03-20T03:23:44.604Z,6.40
2023-03-20T03:26:18.825Z,6.35
2023-03-20T03:28:58.779Z,6.30
2023-03-20T03:31:32.951Z,7.03
2023-03-20T03:34:04.570Z,7.50
2023-03-20T03:36:49.948Z,6.93
2023-03-20T03:39:47.125Z,5.75
2023-03-20T03:42:38.836Z,5.95
2023-03-20T03:45:17.264Z,6.57
2023-03-20T03:47:55.895Z,5.53
2023-03-20T03:50:31.675Z,5.43
2023-03-20T03:53:08.078Z,6.60
2023-03-20T03:55:43.341Z,6.35
2023-03-20T03:58:19.114Z,7.18
2023-03-20T04:00:52.468Z,5.15
2023-03-20T04:03:28.325Z,5.72
2023-03-20T04:05:58.875Z,6.20
2023-03-20T04:08:31.989Z,6.63
2023-03-20T04:11:00.333Z,5.47
2023-03-20T04:13:29.852Z,4.85
2023-03-20T04:16:05.880Z,6.28
2023-03-20T04:18:39.090Z,5.55
2023-03-20T04:21:10.146Z,7.20
2023-03-20T04:23:37.827Z,7.10
2023-03-20T04:26:11.305Z,6.25
2023-03-20T04:28:41.768Z,9.32
2023-03-20T04:31:18.111Z,17.25
2023-03-20T04:34:08.029Z,11.17
2023-03-20T04:36:44.124Z,10.50
2023-03-20T04:39:27.692Z,16.38
2023-03-20T04:41:59.961Z,14.73
2023-03-20T04:44:31.513Z,11.20
2023-03-20T04:47:07.221Z,12.23
2023-03-20T04:49:42.139Z,10.75
2023-03-20T04:52:14.486Z,9.95
2023-03-20T04:54:48.482Z,9.18
2023-03-20T04:57:24.104Z,10.60
2023-03-20T04:59:57.430Z,9.32
2023-03-20T05:02:27.241Z,10.73
2023-03-20T05:04:54.527Z,12.48
2023-03-20T05:07:24.107Z,8.93
2023-03-20T05:10:11.546Z,10.65
2023-03-20T05:13:06.172Z,9.02
2023-03-20T05:15:55.221Z,10.20
2023-03-20T05:18:57.088Z,8.98
2023-03-20T05:21:56.264Z,12.82
2023-03-20T05:24:52.166Z,7.65
2023-03-20T05:27:32.568Z,12.68
2023-03-20T05:30:20.748Z,7.32
2023-03-20T05:33:11.339Z,8.18
2023-03-20T05:36:02.698Z,8.82
2023-03-20T05:38:49.188Z,13.13
2023-03-20T05:41:47.938Z,9.07
2023-03-20T05:44:47.377Z,9.88
2023-03-20T05:47:36.170Z,8.18
2023-03-20T05:50:40.907Z,8.90
2023-03-20T05:53:22.271Z,9.27
2023-03-20T05:56:12.633Z,6.43
2023-03-20T05:58:43.241Z,8.52
2023-03-20T06:01:32.045Z,7.63
2023-03-20T06:04:28.405Z,7.05
2023-03-20T06:07:16.857Z,8.35
2023-03-20T06:09:52.230Z,8.52
2023-03-20T06:12:26.961Z,8.10
2023-03-20T06:14:57.771Z,8.43
2023-03-20T06:17:30.489Z,8.02
2023-03-20T06:20:07.630Z,7.78
2023-03-20T06:22:40.166Z,7.60
2023-03-20T06:25:10.359Z,8.32
2023-03-20T06:27:49.347Z,7.68
2023-03-20T06:30:22.054Z,7.88
2023-03-20T06:33:01.595Z,7.13
2023-03-20T06:35:47.469Z,8.82
2023-03-20T06:38:23.635Z,8.55
2023-03-20T06:40:56.785Z,8.98
2023-03-20T06:43:29.598Z,8.85
2023-03-20T06:46:05.441Z,9.98
2023-03-20T06:48:44.274Z,9.25
2023-03-20T06:51:21.173Z,9.05
2023-03-20T06:53:58.544Z,8.43
2023-03-20T06:56:32.969Z,8.38
2023-03-20T06:59:07.762Z,8.25
2023-03-20T07:01:35.321Z,9.00
2023-03-20T07:04:08.213Z,9.52
2023-03-20T07:06:51.553Z,9.13
2023-03-20T07:09:30.404Z,7.72
2023-03-20T07:12:00.502Z,10.18
2023-03-20T07:14:35.175Z,9.55
2023-03-20T07:17:09.108Z,9.30
2023-03-20T07:19:42.653Z,8.75
2023-03-20T07:22:22.115Z,14.27
2023-03-20T07:25:01.563Z,8.43
2023-03-20T07:27:34.475Z,10.43
2023-03-20T07:30:07.281Z,9.88
2023-03-20T07:32:43.566Z,8.70
2023-03-20T07:35:20.435Z,10.07
2023-03-20T07:37:59.464Z,9.02
2023-03-20T07:40:40.405Z,8.73
2023-03-20T07:43:20.399Z,9.48
2023-03-20T07:46:17.449Z,11.07
2023-03-20T07:48:58.250Z,10.93
2023-03-20T07:51:32.286Z,8.45
2023-03-20T07:54:08.616Z,8.32
2023-03-20T07:56:45.585Z,9.68
2023-03-20T07:59:21.631Z,7.97
2023-03-20T08:01:59.863Z,9.52
2023-03-20T08:04:34.018Z,8.52
2023-03-20T08:09:38.689Z,10.02
2023-03-20T08:12:15.010Z,7.45
2023-03-20T08:14:48.456Z,7.70
2023-03-20T08:20:03.887Z,10.00
2023-03-20T08:22:37.122Z,9.85
2023-03-20T08:25:12.313Z,8.75
2023-03-20T08:27:42.713Z,8.57
2023-03-20T08:30:16.367Z,9.25
2023-03-20T08:32:47.587Z,8.55
2023-03-20T08:35:32.592Z,9.93
2023-03-20T08:38:01.901Z,9.30
2023-03-20T08:40:31.963Z,8.73
2023-03-20T08:43:08.321Z,10.10
2023-03-20T08:48:13.460Z,7.97
2023-03-20T08:50:49.161Z,8.48
2023-03-20T08:53:17.222Z,7.95
2023-03-20T08:55:57.590Z,7.95
2023-03-20T08:58:25.452Z,9.60
2023-03-20T09:01:08.556Z,8.63
2023-03-20T09:03:43.461Z,9.77
2023-03-20T09:06:12.042Z,9.45
2023-03-20T09:08:48.230Z,9.00
2023-03-20T09:11:27.579Z,9.65
2023-03-20T09:14:03.181Z,9.27
2023-03-20T09:16:41.615Z,8.98
2023-03-20T09:19:19.338Z,8.43
2023-03-20T09:21:58.536Z,8.98
2023-03-20T09:24:37.835Z,9.07
2023-03-20T09:27:14.816Z,8.70
2023-03-20T09:29:51.927Z,9.18
2023-03-20T09:32:28.669Z,9.00
2023-03-20T09:35:02.825Z,7.72
2023-03-20T09:37:36.598Z,8.93
2023-03-20T09:40:05.856Z,9.20
2023-03-20T09:42:56.499Z,8.90
2023-03-20T09:45:51.966Z,8.07
2023-03-20T09:48:31.671Z,9.43
2023-03-20T09:51:16.178Z,8.82
2023-03-20T09:54:05.273Z,7.97
2023-03-20T09:56:46.953Z,8.23
2023-03-20T09:59:27.102Z,8.13
2023-03-20T10:02:03.804Z,9.20
2023-03-20T10:04:42.643Z,7.80
2023-03-20T10:07:21.934Z,7.65
2023-03-20T10:09:49.771Z,8.70
2023-03-20T10:12:39.912Z,8.30
2023-03-20T10:15:25.167Z,9.40
2023-03-20T10:18:27.661Z,7.70
2023-03-20T10:21:13.798Z,8.93
2023-03-20T10:24:00.637Z,8.95
2023-03-20T10:26:37.813Z,8.63
2023-03-20T10:29:23.569Z,9.32
2023-03-20T10:32:30.096Z,9.82
2023-03-20T10:35:29.665Z,8.40
2023-03-20T10:38:24.122Z,9.43
2023-03-20T10:40:59.832Z,7.68
2023-03-20T10:43:38.148Z,8.40
2023-03-20T10:46:18.512Z,8.30
2023-03-20T10:49:02.158Z,7.63
2023-03-20T10:51:52.592Z,7.55
2023-03-20T10:54:48.315Z,7.70
2023-03-20T10:57:24.903Z,7.88
2023-03-20T10:59:56.910Z,8.60
2023-03-20T11:02:32.505Z,8.23
2023-03-20T11:05:30.704Z,7.82
2023-03-20T11:08:13.037Z,8.38
2023-03-20T11:10:59.574Z,8.95
2023-03-20T11:13:38.611Z,7.95
2023-03-20T11:16:37.162Z,8.63
2023-03-20T11:19:14.553Z,7.95
2023-03-20T11:21:56.310Z,7.50
2023-03-20T11:24:36.020Z,7.68
2023-03-20T11:27:25.229Z,8.50
2023-03-20T11:29:58.509Z,8.13
2023-03-20T11:32:53.755Z,8.68
2023-03-20T11:35:26.055Z,7.70
2023-03-20T11:37:58.857Z,8.67
2023-03-20T11:40:34.532Z,9.35
2023-03-20T11:43:04.130Z,8.02
2023-03-20T11:45:42.166Z,7.43
2023-03-20T11:48:24.860Z,8.10
2023-03-20T11:51:10.249Z,8.55
2023-03-20T11:53:55.615Z,6.07
2023-03-20T11:56:33.036Z,7.60
2023-03-20T11:59:03.844Z,7.88
2023-03-20T12:01:48.881Z,7.15
2023-03-20T12:04:37.794Z,9.07
2023-03-20T12:07:18.245Z,10.07
2023-03-20T12:09:48.729Z,9.77
2023-03-20T12:12:47.748Z,8.55
2023-03-20T12:15:37.046Z,10.82
2023-03-20T12:18:41.984Z,9.23
2023-03-20T12:21:18.059Z,8.80
2023-03-20T12:24:05.843Z,9.85
2023-03-20T12:27:02.861Z,8.68
2023-03-20T12:29:40.820Z,7.75
2023-03-20T12:32:22.998Z,8.18
2023-03-20T12:34:59.619Z,8.70
2023-03-20T12:37:34.820Z,8.57
2023-03-20T12:40:04.922Z,7.93
2023-03-20T12:42:51.597Z,8.60
2023-03-20T12:46:14.987Z,8.35
2023-03-20T12:49:03.392Z,7.35
2023-03-20T12:51:44.364Z,9.45
2023-03-20T12:54:45.903Z,8.27
2023-03-20T12:57:39.238Z,8.57
2023-03-20T13:00:18.269Z,8.30
2023-03-20T13:02:52.222Z,7.90
2023-03-20T13:05:46.617Z,7.70
2023-03-20T13:08:22.646Z,8.15
2023-03-20T13:10:59.863Z,9.00
2023-03-20T13:13:51.445Z,7.38
2023-03-20T13:16:48.372Z,9.73
2023-03-20T13:19:48.999Z,7.75
2023-03-20T13:22:27.933Z,8.07
2023-03-20T13:25:08.759Z,7.88
2023-03-20T13:27:42.924Z,11.15
2023-03-20T13:30:34.652Z,8.45
2023-03-20T13:33:26.258Z,8.82
2023-03-20T13:36:10.035Z,9.43
2023-03-20T13:38:46.157Z,8.43
2023-03-20T13:41:22.149Z,10.70
2023-03-20T13:44:06.361Z,9.48
2023-03-20T13:46:45.700Z,9.05
2023-03-20T13:49:35.282Z,10.02
2023-03-20T13:52:22.034Z,8.90
2023-03-20T13:55:11.614Z,9.82
2023-03-20T13:57:44.751Z,8.23
2023-03-20T14:00:29.176Z,8.52
2023-03-20T14:03:17.339Z,7.78
2023-03-20T14:05:46.411Z,8.32
2023-03-20T14:08:36.884Z,8.57
2023-03-20T14:11:15.084Z,10.15
2023-03-20T14:14:04.852Z,9.18
2023-03-20T14:16:36.070Z,8.38
2023-03-20T14:19:18.093Z,8.57
2023-03-20T14:21:47.769Z,7.30
2023-03-20T14:24:26.046Z,8.02
2023-03-20T14:26:58.046Z,7.82
2023-03-20T14:29:29.296Z,7.20
2023-03-20T14:32:17.969Z,7.60
2023-03-20T14:34:52.402Z,8.02
2023-03-20T14:38:09.451Z,8.35
2023-03-20T14:40:52.207Z,10.70
2023-03-20T14:43:52.376Z,9.60
2023-03-20T14:46:41.416Z,8.70
2023-03-20T14:49:51.989Z,8.15
2023-03-20T14:52:43.528Z,7.75
2023-03-20T14:55:20.520Z,8.32
2023-03-20T14:57:56.907Z,6.85
2023-03-20T15:00:46.224Z,7.57
2023-03-20T15:03:28.513Z,8.10
2023-03-20T15:06:08.337Z,7.53
2023-03-20T15:08:48.034Z,7.55
2023-03-20T15:11:17.508Z,7.30
2023-03-20T15:13:52.492Z,6.97
2023-03-20T15:16:33.042Z,9.25
2023-03-20T15:19:15.586Z,7.97
2023-03-20T15:21:48.548Z,7.63
2023-03-20T15:24:30.323Z,7.88
2023-03-20T15:27:04.473Z,8.15
2023-03-20T15:29:33.331Z,8.07
2023-03-20T15:32:14.348Z,7.30
2023-03-20T15:34:50.792Z,7.05
2023-03-20T15:39:59.833Z,8.03
2023-03-20T15:42:32.156Z,7.07
2023-03-20T15:45:19.969Z,7.22
2023-03-20T15:47:51.858Z,9.38
2023-03-20T15:50:27.194Z,7.97
2023-03-20T15:53:03.231Z,7.55
2023-03-20T15:55:41.126Z,7.43
2023-03-20T15:58:20.457Z,7.70
2023-03-20T16:01:00.106Z,7.53
2023-03-20T16:03:31.097Z,6.60
2023-03-20T16:06:09.343Z,8.10
2023-03-20T16:08:39.922Z,7.93
2023-03-20T16:11:22.043Z,7.95
2023-03-20T16:13:55.920Z,8.68
2023-03-20T16:16:37.855Z,9.88
2023-03-20T16:19:13.190Z,8.60
2023-03-20T16:22:14.824Z,7.28
2023-03-20T16:24:53.263Z,8.05
2023-03-20T16:27:47.197Z,7.80
2023-03-20T16:30:17.376Z,8.60
2023-03-20T16:33:17.665Z,9.48
2023-03-20T16:35:49.915Z,8.65
2023-03-20T16:38:29.419Z,8.65
2023-03-20T16:41:29.357Z,7.72
2023-03-20T16:44:00.389Z,8.57
2023-03-20T16:46:31.387Z,7.18
2023-03-20T16:49:34.836Z,7.03
2023-03-20T16:52:11.805Z,8.33
2023-03-20T16:54:41.948Z,8.13
2023-03-20T16:57:17.374Z,8.52
2023-03-20T16:59:48.209Z,8.85
2023-03-20T17:02:27.696Z,7.97
2023-03-20T17:05:02.313Z,7.00
2023-03-20T17:07:31.659Z,7.85
2023-03-20T17:10:17.750Z,7.07
2023-03-20T17:12:55.027Z,7.25
2023-03-20T17:15:31.308Z,7.43
2023-03-20T17:18:04.577Z,7.85
2023-03-20T17:20:40.311Z,8.65
2023-03-20T17:23:19.838Z,7.20
2023-03-20T17:25:52.883Z,7.35
2023-03-20T17:28:34.265Z,8.50
2023-03-20T17:31:10.433Z,7.07
2023-03-20T17:33:46.509Z,8.05
2023-03-20T17:36:20.631Z,9.55
2023-03-20T17:38:53.691Z,7.05
2023-03-20T17:41:25.864Z,8.65
2023-03-20T17:43:54.085Z,7.72
2023-03-20T17:46:28.016Z,8.15
2023-03-20T17:49:06.049Z,6.88
2023-03-20T17:51:41.476Z,8.25
2023-03-20T17:54:17.909Z,7.57
2023-03-20T17:56:51.410Z,8.73
2023-03-20T18:01:53.296Z,7.63
2023-03-20T18:04:29.715Z,7.32
2023-03-20T18:07:04.614Z,7.63
2023-03-20T18:09:35.083Z,7.30
2023-03-20T18:12:22.392Z,7.68
2023-03-20T18:14:53.529Z,8.63
2023-03-20T18:17:22.518Z,8.52
2023-03-20T18:19:54.298Z,8.35
2023-03-20T18:22:26.612Z,8.60
2023-03-20T18:24:54.173Z,7.95
2023-03-20T18:27:21.810Z,8.15
2023-03-20T18:29:54.696Z,7.68
2023-03-20T18:32:22.258Z,7.95
2023-03-20T18:34:52.631Z,8.82
2023-03-20T18:37:22.124Z,8.45
2023-03-20T18:39:53.020Z,8.05
2023-03-20T18:42:23.617Z,8.73
2023-03-20T18:44:53.937Z,7.75
2023-03-20T18:47:22.564Z,7.78
2023-03-20T18:49:58.039Z,8.25
2023-03-20T18:52:26.265Z,8.02
2023-03-20T18:54:59.090Z,7.55
2023-03-20T18:57:29.674Z,7.13
2023-03-20T19:00:06.097Z,8.80
2023-03-20T19:02:33.793Z,8.27
2023-03-20T19:05:07.289Z,8.02
2023-03-20T19:10:05.265Z,7.70
2023-03-20T19:12:41.566Z,7.65
2023-03-20T19:15:10.707Z,7.90
2023-03-20T19:17:41.272Z,7.78
2023-03-20T19:20:26.610Z,9.07
2023-03-20T19:22:55.666Z,7.75
2023-03-20T19:25:29.141Z,7.90
2023-03-20T19:27:56.811Z,8.65
2023-03-20T19:30:34.740Z,7.20
2023-03-20T19:33:03.556Z,8.60
2023-03-20T19:35:58.798Z,7.53
2023-03-20T19:38:26.193Z,9.15
2023-03-20T19:40:57.870Z,8.68
2023-03-20T19:43:32.416Z,8.60
2023-03-20T19:46:00.194Z,7.45
2023-03-20T19:48:50.401Z,8.65
2023-03-20T19:51:20.632Z,8.18
2023-03-20T19:53:50.168Z,7.80
2023-03-20T19:56:22.256Z,8.07
2023-03-20T19:58:54.835Z,7.40
2023-03-20T20:01:27.050Z,8.37
2023-03-20T20:03:55.279Z,8.50
2023-03-20T20:06:32.079Z,7.80
2023-03-20T20:09:01.336Z,7.88
2023-03-20T20:11:32.210Z,7.93
2023-03-20T20:14:09.446Z,7.82
2023-03-20T20:16:43.126Z,9.02
2023-03-20T20:19:15.014Z,7.75
2023-03-20T20:24:45.377Z,8.98
2023-03-20T20:27:19.094Z,8.35
2023-03-20T20:29:51.598Z,7.80
2023-03-20T20:32:21.903Z,7.63
2023-03-20T20:38:30.646Z,8.63
2023-03-20T20:40:32.443Z,8.75
2023-03-20T20:43:02.427Z,7.35
2023-03-20T20:45:35.028Z,8.63
2023-03-20T20:48:07.524Z,8.63
2023-03-20T20:50:39.207Z,8.25
2023-03-20T20:53:09.870Z,6.68
2023-03-20T20:55:38.070Z,8.93
2023-03-20T20:58:07.091Z,7.85
2023-03-20T21:00:51.663Z,7.40
2023-03-20T21:03:24.464Z,7.28
2023-03-20T21:05:54.091Z,7.93
2023-03-20T21:08:22.517Z,8.20
2023-03-20T21:10:53.269Z,7.40
2023-03-20T21:13:27.322Z,9.63
2023-03-20T21:16:00.082Z,8.05
2023-03-20T21:18:31.421Z,7.82
2023-03-20T21:21:13.184Z,9.05
2023-03-20T21:23:41.823Z,7.82
2023-03-20T21:26:13.663Z,8.25
2023-03-20T21:28:44.082Z,8.05
2023-03-20T21:31:26.555Z,7.63
2023-03-20T21:33:55.690Z,7.40
2023-03-20T21:36:25.133Z,8.45
2023-03-20T21:39:08.122Z,8.63
2023-03-20T21:44:06.362Z,8.45
2023-03-20T21:50:23.275Z,8.13
2023-03-20T21:56:09.109Z,8.40
2023-03-20T22:04:45.049Z,8.35
2023-03-20T22:07:24.197Z,8.23
2023-03-20T22:16:03.516Z,8.70
2023-03-20T22:18:50.837Z,8.10
2023-03-20T22:24:36.688Z,7.72
2023-03-20T22:27:27.014Z,8.02
2023-03-20T22:30:31.028Z,8.63
2023-03-20T22:32:56.522Z,8.18
2023-03-20T22:38:59.019Z,8.55
2023-03-20T22:44:41.638Z,7.85
2023-03-20T22:46:47.124Z,8.52
2023-03-20T22:49:15.406Z,9.25
2023-03-20T22:52:07.753Z,7.80
2023-03-20T22:54:41.117Z,8.20
2023-03-20T22:57:09.662Z,9.43
2023-03-20T22:59:40.108Z,8.88
2023-03-20T23:02:09.126Z,8.77
2023-03-20T23:04:42.247Z,8.73
2023-03-20T23:07:12.697Z,8.40
2023-03-20T23:09:40.154Z,8.13
2023-03-20T23:12:11.673Z,7.72
2023-03-20T23:14:45.818Z,8.82
2023-03-20T23:17:21.287Z,7.68
2023-03-20T23:19:56.303Z,7.88
2023-03-20T23:22:35.599Z,9.27
2023-03-20T23:25:20.716Z,8.52
2023-03-20T23:27:53.624Z,8.15
2023-03-20T23:30:30.909Z,8.77
2023-03-20T23:33:10.877Z,8.98
2023-03-20T23:35:41.138Z,8.90
2023-03-20T23:38:08.475Z,8.52
2023-03-20T23:40:42.128Z,8.05
2023-03-20T23:43:11.818Z,8.48
2023-03-20T23:45:42.085Z,10.00
2023-03-20T23:48:15.830Z,9.05
2023-03-20T23:50:53.302Z,11.30
2023-03-20T23:53:24.699Z,9.05
2023-03-20T23:55:55.649Z,8.98
2023-03-20T23:58:25.893Z,8.23
